Meteo Giornale » Osservazioni meteo Stati Uniti (USA) » Los Angeles

ore: 04:53 - Osservazioni Meteo Los Angeles
Lat. 33° 56' N Lon. 118° 23' W Alt. 38 metri s.l.m.

sereno America/Los_Angeles

17 °C

Sereno

Temp. 24 Ore

16 °C

27 °C

Est/Nord-Est

7.4 Km/h

Dew point 4 °C

Umidità 41 %

Visibilità  10 Km

Il sole sorge alle ore 07:00

Il sole tramonta alle ore 18:16

Data e Ora Cielo e Fenomeni T °C DP °C Um. % Pres. hPa Vis. km Vento km/h
Oggi h: 04:53 sereno Sereno 17 4 41 1017 10 E/NE 7.4
Oggi h: 03:53 sereno Sereno 17 6 48 1017 10 N 5.5
Oggi h: 02:53 sereno Sereno 16 9 63 1017 10 E 9.3
Oggi h: 01:53 sereno Sereno 17 11 67 1017 10 E/NE 7.4
Oggi h: 00:53 sereno Sereno 17 13 77 1017 10 E 9.3
Ieri h: 23:53 sereno Sereno 18 14 77 1017 10 E/SE 9.3
Ieri h: 22:53 sereno Sereno 19 14 72 1017 10 N 5.5
Ieri h: 21:53 sereno Sereno 19 14 72 1017 10 N 5.5
Ieri h: 20:53 sereno Sereno 19 13 68 1017 10 O/SO 9.3
Ieri h: 19:53 sereno Sereno 20 12 59 1016 10 O/SO 11.1
Ieri h: 18:53 sereno Sereno 21 11 52 1016 10 O/SO 11.1
Ieri h: 17:53 sereno Sereno 21 11 52 1015 10 O/SO 16.7
Ieri h: 16:53 sereno Sereno 22 13 56 1015 10 O 20.3
Ieri h: 15:53 sereno Sereno 22 12 53 1016 10 O 24
Ieri h: 14:53 sereno Sereno 23 14 56 1016 10 O/SO 25.9
Ieri h: 13:53 sereno Sereno 24 13 50 1016 10 O/SO 20.3
Ieri h: 12:53 sereno Sereno 26 8 31 1017 10 SO 18.5
Ieri h: 11:53 sereno Sereno 27 -2 14 1018 10 N 0
Ieri h: 10:53 sereno Sereno 25 -1 17 1018 10 E/SE 7.4
Ieri h: 08:53 sereno Sereno 21 -1 22 1019 10 NE 11.1
Ieri h: 07:53 sereno Sereno 17 1 33 1018 10 NE 9.3
Ieri h: 06:53 poco_nuvoloso Poco Nuvoloso 18 0 29 1018 10 N/NE 7.4
Ieri h: 05:53 sereno Sereno 16 6 51 1017 10 N 0